createdAt,value
2022-11-21T00:02:21.990Z,19.52
2022-11-21T00:04:55.946Z,20.40
2022-11-21T00:07:31.377Z,19.33
2022-11-21T00:10:06.179Z,19.02
2022-11-21T00:12:40.073Z,20.05
2022-11-21T00:17:47.383Z,17.38
2022-11-21T00:22:57.174Z,15.68
2022-11-21T00:25:31.105Z,17.65
2022-11-21T00:28:05.118Z,17.63
2022-11-21T00:30:38.937Z,18.10
2022-11-21T00:35:46.266Z,15.35
2022-11-21T00:40:58.175Z,18.83
2022-11-21T00:43:31.971Z,17.55
2022-11-21T00:46:08.253Z,18.95
2022-11-21T00:48:42.061Z,17.55
2022-11-21T00:53:53.841Z,18.70
2022-11-21T00:56:27.633Z,17.90
2022-11-21T01:01:35.252Z,17.60
2022-11-21T01:06:42.722Z,17.73
2022-11-21T01:09:20.268Z,17.88
2022-11-21T01:11:54.044Z,18.35
2022-11-21T01:14:31.102Z,17.83
2022-11-21T01:17:05.304Z,17.70
2022-11-21T01:19:39.162Z,17.58
2022-11-21T01:24:51.677Z,17.37
2022-11-21T01:27:25.579Z,17.08
2022-11-21T01:29:59.493Z,19.02
2022-11-21T01:32:33.423Z,15.90
2022-11-21T01:37:46.980Z,16.50
2022-11-21T01:40:22.204Z,17.80
2022-11-21T01:43:00.035Z,16.92
2022-11-21T01:46:05.732Z,15.95
2022-11-21T01:48:44.370Z,15.93
2022-11-21T01:51:22.876Z,17.13
2022-11-21T01:54:03.254Z,17.08
2022-11-21T01:56:44.407Z,16.33
2022-11-21T01:59:24.490Z,16.10
2022-11-21T02:02:03.825Z,16.85
2022-11-21T02:04:39.212Z,16.67
2022-11-21T02:07:14.963Z,16.92
2022-11-21T02:09:55.767Z,16.52
2022-11-21T02:12:35.338Z,17.02
2022-11-21T02:15:10.486Z,16.00
2022-11-21T02:17:44.853Z,15.38
2022-11-21T02:20:21.709Z,16.48
2022-11-21T02:23:03.864Z,14.90
2022-11-21T02:25:45.306Z,16.63
2022-11-21T02:28:23.727Z,16.75
2022-11-21T02:31:02.699Z,15.88
2022-11-21T02:33:39.531Z,16.30
2022-11-21T02:36:39.653Z,16.48
2022-11-21T02:39:18.915Z,15.98
2022-11-21T02:42:02.670Z,15.90
2022-11-21T02:44:45.042Z,15.80
2022-11-21T02:47:18.865Z,16.15
2022-11-21T02:52:32.420Z,15.30
2022-11-21T02:55:07.255Z,15.02
2022-11-21T02:57:42.876Z,14.98
2022-11-21T03:00:17.247Z,15.85
2022-11-21T03:02:51.258Z,16.08
2022-11-21T03:07:58.824Z,16.25
2022-11-21T03:13:07.961Z,16.30
2022-11-21T03:15:41.803Z,17.27
2022-11-21T03:18:15.870Z,15.05
2022-11-21T03:23:23.289Z,16.43
2022-11-21T03:28:32.243Z,15.50
2022-11-21T03:31:06.142Z,15.35
2022-11-21T03:33:40.020Z,14.57
2022-11-21T03:38:47.515Z,14.20
2022-11-21T03:41:33.349Z,15.25
2022-11-21T03:44:10.241Z,15.02
2022-11-21T03:46:48.086Z,15.43
2022-11-21T03:49:21.932Z,15.57
2022-11-21T03:54:29.735Z,15.00
2022-11-21T03:57:03.817Z,14.32
2022-11-21T04:02:12.706Z,13.57
2022-11-21T04:04:46.599Z,13.95
2022-11-21T04:09:54.102Z,14.07
2022-11-21T04:15:03.206Z,12.93
2022-11-21T04:17:37.118Z,13.55
2022-11-21T04:20:12.307Z,13.68
2022-11-21T04:22:46.151Z,13.45
2022-11-21T04:27:57.106Z,12.75
2022-11-21T04:30:34.198Z,14.23
2022-11-21T04:33:08.034Z,12.98
2022-11-21T04:38:16.172Z,13.03
2022-11-21T04:40:50.054Z,13.43
2022-11-21T04:45:58.831Z,13.20
2022-11-21T04:48:32.984Z,13.20
2022-11-21T04:51:06.831Z,13.48
2022-11-21T04:56:17.283Z,13.38
2022-11-21T04:58:53.706Z,13.82
2022-11-21T05:01:29.076Z,13.43
2022-11-21T05:04:02.967Z,13.70
2022-11-21T05:09:10.592Z,11.57
2022-11-21T05:12:01.748Z,13.77
2022-11-21T05:14:35.606Z,13.52
2022-11-21T05:17:11.228Z,12.93
2022-11-21T05:19:45.069Z,13.77
2022-11-21T05:24:52.638Z,13.03
2022-11-21T05:27:26.540Z,12.65
2022-11-21T05:32:35.385Z,12.47
2022-11-21T05:35:10.020Z,12.48
2022-11-21T05:37:43.895Z,13.32
2022-11-21T05:43:09.162Z,13.55
2022-11-21T05:45:43.009Z,12.65
2022-11-21T05:50:52.095Z,14.02
2022-11-21T05:53:25.994Z,13.88
2022-11-21T05:56:04.451Z,12.73
2022-11-21T05:58:38.460Z,12.95
2022-11-21T06:01:14.767Z,13.05
2022-11-21T06:03:49.057Z,13.02
2022-11-21T06:06:24.960Z,13.27
2022-11-21T06:08:59.092Z,12.90
2022-11-21T06:11:32.963Z,13.35
2022-11-21T06:16:40.471Z,12.40
2022-11-21T06:21:49.423Z,12.82
2022-11-21T06:26:56.818Z,15.15
2022-11-21T06:29:30.739Z,13.00
2022-11-21T06:34:39.698Z,13.98
2022-11-21T06:37:13.736Z,14.38
2022-11-21T06:39:48.931Z,13.57
2022-11-21T06:42:23.332Z,13.90
2022-11-21T06:44:57.187Z,12.90
2022-11-21T06:47:34.698Z,14.60
2022-11-21T06:50:11.773Z,14.90
2022-11-21T06:52:45.730Z,13.07
2022-11-21T06:55:21.523Z,15.57
2022-11-21T06:57:57.994Z,15.23
2022-11-21T07:00:31.856Z,15.40
2022-11-21T07:05:40.996Z,15.70
2022-11-21T07:08:14.870Z,15.50
2022-11-21T07:13:43.861Z,16.83
2022-11-21T07:16:17.747Z,16.05
2022-11-21T07:18:52.323Z,17.95
2022-11-21T07:21:28.090Z,17.92
2022-11-21T07:24:02.097Z,17.00
2022-11-21T07:26:35.964Z,17.20
2022-11-21T07:31:43.474Z,18.50
2022-11-21T07:34:17.322Z,15.40
2022-11-21T07:39:26.700Z,17.27
2022-11-21T07:42:00.916Z,15.20
2022-11-21T07:49:43.264Z,14.80
2022-11-21T07:52:18.793Z,14.88
2022-11-21T07:54:52.993Z,13.50
2022-11-21T07:57:26.864Z,19.10
2022-11-21T08:02:34.451Z,17.38
2022-11-21T08:07:43.816Z,39.20
2022-11-21T08:10:18.472Z,36.80
2022-11-21T08:12:52.496Z,32.35
2022-11-21T08:15:26.422Z,31.02
2022-11-21T08:20:33.958Z,29.27
2022-11-21T08:25:45.286Z,24.08
2022-11-21T08:28:19.212Z,25.42
2022-11-21T08:30:53.132Z,24.27
2022-11-21T08:36:00.784Z,21.67
2022-11-21T08:38:39.323Z,21.52
2022-11-21T08:41:31.373Z,20.20
2022-11-21T08:44:11.138Z,19.17
2022-11-21T08:46:51.062Z,18.00
2022-11-21T08:49:25.210Z,19.08
2022-11-21T08:51:59.253Z,18.17
2022-11-21T08:54:34.523Z,17.30
2022-11-21T08:57:08.752Z,18.10
2022-11-21T08:59:42.649Z,16.70
2022-11-21T09:04:50.159Z,16.53
2022-11-21T09:09:59.171Z,16.67
2022-11-21T09:12:33.412Z,16.35
2022-11-21T09:15:26.016Z,15.75
2022-11-21T09:18:06.765Z,14.93
2022-11-21T09:20:42.125Z,15.23
2022-11-21T09:23:17.708Z,15.35
2022-11-21T09:25:53.069Z,16.48
2022-11-21T09:28:27.068Z,14.20
2022-11-21T09:31:03.436Z,13.98
2022-11-21T09:33:37.909Z,13.55
2022-11-21T09:36:11.761Z,14.43
2022-11-21T09:41:46.514Z,12.83
2022-11-21T09:44:47.752Z,13.57
2022-11-21T09:47:26.322Z,12.70
2022-11-21T09:50:03.047Z,13.13
2022-11-21T09:52:43.084Z,12.43
2022-11-21T09:55:22.845Z,12.85
2022-11-21T09:58:01.658Z,13.73
2022-11-21T10:00:38.783Z,12.85
2022-11-21T10:03:18.018Z,13.73
2022-11-21T10:05:59.245Z,11.90
2022-11-21T10:08:44.376Z,11.65
2022-11-21T10:11:25.069Z,13.35
2022-11-21T10:14:18.709Z,11.20
2022-11-21T10:17:00.485Z,13.85
2022-11-21T10:19:54.455Z,13.63
2022-11-21T10:22:47.124Z,12.07
2022-11-21T10:25:27.504Z,10.02
2022-11-21T10:28:08.072Z,11.38
2022-11-21T10:30:46.020Z,12.50
2022-11-21T10:36:33.038Z,13.90
2022-11-21T10:39:23.686Z,12.18
2022-11-21T10:42:04.419Z,13.98
2022-11-21T10:44:55.801Z,14.77
2022-11-21T10:47:37.904Z,13.68
2022-11-21T10:50:36.619Z,13.75
2022-11-21T10:53:35.642Z,13.13
2022-11-21T10:56:13.744Z,13.40
2022-11-21T10:58:50.341Z,13.63
2022-11-21T11:01:27.265Z,12.57
2022-11-21T11:04:41.571Z,12.23
2022-11-21T11:07:26.065Z,13.48
2022-11-21T11:10:27.637Z,12.82
2022-11-21T11:16:18.813Z,13.23
2022-11-21T11:18:58.498Z,12.32
2022-11-21T11:21:49.570Z,11.75
2022-11-21T11:24:27.528Z,13.27
2022-11-21T11:27:05.044Z,12.98
2022-11-21T11:29:53.228Z,12.55
2022-11-21T11:32:27.669Z,11.75
2022-11-21T11:35:05.482Z,12.23
2022-11-21T11:37:42.851Z,12.18
2022-11-21T11:40:25.181Z,11.85
2022-11-21T11:43:34.447Z,13.43
2022-11-21T11:46:39.694Z,12.18
2022-11-21T11:49:21.456Z,11.45
2022-11-21T11:52:08.014Z,12.68
2022-11-21T11:54:50.770Z,12.85
2022-11-21T11:57:24.753Z,11.63
2022-11-21T12:00:08.620Z,12.32
2022-11-21T12:02:55.925Z,11.27
2022-11-21T12:05:32.086Z,12.45
2022-11-21T12:11:33.132Z,11.52
2022-11-21T12:14:37.619Z,12.02
2022-11-21T12:17:13.816Z,11.95
2022-11-21T12:19:51.352Z,11.73
2022-11-21T12:22:25.330Z,10.75
2022-11-21T12:27:34.194Z,14.38
2022-11-21T12:30:21.653Z,13.45
2022-11-21T12:33:03.584Z,14.85
2022-11-21T12:36:17.795Z,14.10
2022-11-21T12:39:14.691Z,16.38
2022-11-21T12:42:14.017Z,15.45
2022-11-21T12:45:04.372Z,13.93
2022-11-21T12:48:37.984Z,16.02
2022-11-21T12:52:02.375Z,17.67
2022-11-21T12:55:08.563Z,20.42
2022-11-21T12:58:02.367Z,22.17
2022-11-21T13:00:48.094Z,21.02
2022-11-21T13:03:43.112Z,20.85
2022-11-21T13:06:20.424Z,19.30
2022-11-21T13:08:56.647Z,20.33
2022-11-21T13:12:00.438Z,19.35
2022-11-21T13:14:45.867Z,19.10
2022-11-21T13:17:45.143Z,19.35
2022-11-21T13:20:40.608Z,18.88
2022-11-21T13:23:37.912Z,17.63
2022-11-21T13:26:50.282Z,17.55
2022-11-21T13:29:24.077Z,17.38
2022-11-21T13:34:40.964Z,15.63
2022-11-21T13:37:58.289Z,16.88
2022-11-21T13:40:39.920Z,16.45
2022-11-21T13:43:33.122Z,14.70
2022-11-21T13:46:07.867Z,14.68
2022-11-21T13:51:50.005Z,16.42
2022-11-21T13:54:49.555Z,14.68
2022-11-21T13:57:46.911Z,15.85
2022-11-21T14:00:38.187Z,15.02
2022-11-21T14:03:51.288Z,15.02
2022-11-21T14:06:36.293Z,14.98
2022-11-21T14:09:37.633Z,14.35
2022-11-21T14:12:24.070Z,14.15
2022-11-21T14:15:17.510Z,14.60
2022-11-21T14:17:54.566Z,15.85
2022-11-21T14:20:36.455Z,13.57
2022-11-21T14:23:19.272Z,14.32
2022-11-21T14:25:57.405Z,15.43
2022-11-21T14:28:33.383Z,13.70
2022-11-21T14:31:09.184Z,13.75
2022-11-21T14:33:44.175Z,15.27
2022-11-21T14:36:20.299Z,13.98
2022-11-21T14:39:29.381Z,12.57
2022-11-21T14:41:54.110Z,13.45
2022-11-21T14:44:28.564Z,13.05
2022-11-21T14:47:17.260Z,14.23
2022-11-21T14:49:55.282Z,14.25
2022-11-21T14:52:31.890Z,14.40
2022-11-21T14:55:30.256Z,13.40
2022-11-21T14:58:05.262Z,14.20
2022-11-21T15:03:33.597Z,13.25
2022-11-21T15:06:12.599Z,13.82
2022-11-21T15:11:47.525Z,13.40
2022-11-21T15:14:28.172Z,13.05
2022-11-21T15:17:05.424Z,13.73
2022-11-21T15:19:39.988Z,13.15
2022-11-21T15:22:26.520Z,13.50
2022-11-21T15:25:09.462Z,13.48
2022-11-21T15:27:43.876Z,14.68
2022-11-21T15:30:30.789Z,14.68
2022-11-21T15:33:07.853Z,16.33
2022-11-21T15:35:53.778Z,15.25
2022-11-21T15:38:32.666Z,16.05
2022-11-21T15:41:27.058Z,16.23
2022-11-21T15:44:31.767Z,14.15
2022-11-21T15:47:10.078Z,15.15
2022-11-21T15:49:44.883Z,16.05
2022-11-21T15:52:19.844Z,16.15
2022-11-21T15:54:53.783Z,14.68
2022-11-21T15:57:27.771Z,16.35
2022-11-21T16:00:01.751Z,15.77
2022-11-21T16:02:47.414Z,16.00
2022-11-21T16:05:21.991Z,16.08
2022-11-21T16:07:56.397Z,16.17
2022-11-21T16:10:30.679Z,16.45
2022-11-21T16:13:04.998Z,15.70
2022-11-21T16:15:38.886Z,16.90
2022-11-21T16:18:14.423Z,18.55
2022-11-21T16:20:48.593Z,18.52
2022-11-21T16:23:22.910Z,18.83
2022-11-21T16:25:57.188Z,18.42
2022-11-21T16:28:31.172Z,17.45
2022-11-21T16:31:07.152Z,17.02
2022-11-21T16:33:42.503Z,15.45
2022-11-21T16:36:21.894Z,17.80
2022-11-21T16:39:00.503Z,16.13
2022-11-21T16:41:37.493Z,17.15
2022-11-21T16:44:15.275Z,16.10
2022-11-21T16:46:51.736Z,15.55
2022-11-21T16:49:27.291Z,15.82
2022-11-21T16:52:01.354Z,15.63
2022-11-21T16:57:08.825Z,15.57
2022-11-21T16:59:43.667Z,13.65
2022-11-21T17:02:17.798Z,15.18
2022-11-21T17:04:53.535Z,15.43
2022-11-21T17:07:27.682Z,14.88
2022-11-21T17:10:02.393Z,14.55
2022-11-21T17:12:39.149Z,14.02
2022-11-21T17:15:14.967Z,14.27
2022-11-21T17:17:48.944Z,13.88
2022-11-21T17:20:24.343Z,14.57
2022-11-21T17:22:58.308Z,13.40
2022-11-21T17:25:33.640Z,14.00
2022-11-21T17:28:07.875Z,13.35
2022-11-21T17:30:44.246Z,12.93
2022-11-21T17:33:18.178Z,12.95
2022-11-21T17:35:53.767Z,13.82
2022-11-21T17:38:29.488Z,13.35
2022-11-21T17:41:08.123Z,12.20
2022-11-21T17:43:44.306Z,13.73
2022-11-21T17:46:21.947Z,14.05
2022-11-21T17:48:59.093Z,12.68
2022-11-21T17:51:37.948Z,12.70
2022-11-21T17:54:12.790Z,13.15
2022-11-21T17:56:51.474Z,11.63
2022-11-21T17:59:29.665Z,11.95
2022-11-21T18:02:06.154Z,13.10
2022-11-21T18:04:42.563Z,12.93
2022-11-21T18:09:52.494Z,12.48
2022-11-21T18:12:26.951Z,12.60
2022-11-21T18:15:04.028Z,11.80
2022-11-21T18:17:38.306Z,10.82
2022-11-21T18:20:13.000Z,11.32
2022-11-21T18:22:50.416Z,11.68
2022-11-21T18:25:24.535Z,10.75
2022-11-21T18:27:58.657Z,11.60
2022-11-21T18:30:33.736Z,11.00
2022-11-21T18:33:07.800Z,11.18
2022-11-21T18:38:46.052Z,11.70
2022-11-21T18:41:13.873Z,12.02
2022-11-21T18:43:52.178Z,10.45
2022-11-21T18:46:30.658Z,11.35
2022-11-21T18:49:06.921Z,10.63
2022-11-21T18:51:41.763Z,11.30
2022-11-21T18:56:53.703Z,10.65
2022-11-21T18:59:28.147Z,10.90
2022-11-21T19:02:02.677Z,11.10
2022-11-21T19:04:36.647Z,10.43
2022-11-21T19:07:15.494Z,11.38
2022-11-21T19:09:51.194Z,10.30
2022-11-21T19:12:25.173Z,10.70
2022-11-21T19:17:32.621Z,9.77
2022-11-21T19:20:07.646Z,10.60
2022-11-21T19:22:41.507Z,10.05
2022-11-21T19:25:16.946Z,11.15
2022-11-21T19:27:50.922Z,10.23
2022-11-21T19:30:25.190Z,11.88
2022-11-21T19:33:00.908Z,10.50
2022-11-21T19:35:35.178Z,10.70
2022-11-21T19:38:11.657Z,11.23
2022-11-21T19:41:04.633Z,11.68
2022-11-21T19:43:38.615Z,10.00
2022-11-21T19:46:13.207Z,11.18
2022-11-21T19:48:49.390Z,9.90
2022-11-21T19:51:25.099Z,10.95
2022-11-21T19:53:59.083Z,11.45
2022-11-21T19:56:34.783Z,10.35
2022-11-21T19:59:09.006Z,10.10
2022-11-21T20:01:45.713Z,10.88
2022-11-21T20:04:22.283Z,11.45
2022-11-21T20:06:57.527Z,9.60
2022-11-21T20:09:34.597Z,10.63
2022-11-21T20:12:10.428Z,11.38
2022-11-21T20:14:44.564Z,10.40
2022-11-21T20:17:19.133Z,9.75
2022-11-21T20:19:58.078Z,10.07
2022-11-21T20:22:35.117Z,10.00
2022-11-21T20:25:09.955Z,9.65
2022-11-21T20:27:45.760Z,10.88
2022-11-21T20:30:29.789Z,9.60
2022-11-21T20:33:07.182Z,9.77
2022-11-21T20:35:45.528Z,10.30
2022-11-21T20:38:24.166Z,10.90
2022-11-21T20:40:58.670Z,10.85
2022-11-21T20:44:14.393Z,10.35
2022-11-21T20:46:31.020Z,10.65
2022-11-21T20:49:05.088Z,10.77
2022-11-21T20:54:32.718Z,9.20
2022-11-21T20:57:13.125Z,9.82
2022-11-21T20:59:49.978Z,9.55
2022-11-21T21:02:24.186Z,9.35
2022-11-21T21:04:58.192Z,9.65
2022-11-21T21:12:45.761Z,9.40
2022-11-21T21:15:23.710Z,9.68
2022-11-21T21:17:57.721Z,9.75
2022-11-21T21:20:36.328Z,9.93
2022-11-21T21:23:18.261Z,9.68
2022-11-21T21:25:53.424Z,11.38
2022-11-21T21:28:31.579Z,9.40
2022-11-21T21:31:11.829Z,10.40
2022-11-21T21:33:46.257Z,10.45
2022-11-21T21:36:24.193Z,9.85
2022-11-21T21:39:02.842Z,10.02
2022-11-21T21:41:40.215Z,9.40
2022-11-21T21:44:14.445Z,9.57
2022-11-21T21:46:49.664Z,9.32
2022-11-21T21:49:24.219Z,8.95
2022-11-21T21:52:00.523Z,9.88
2022-11-21T21:54:36.412Z,9.48
2022-11-21T21:57:10.467Z,9.35
2022-11-21T22:02:19.344Z,9.80
2022-11-21T22:04:53.379Z,10.35
2022-11-21T22:07:27.504Z,10.65
2022-11-21T22:10:02.232Z,9.20
2022-11-21T22:12:38.859Z,10.63
2022-11-21T22:15:16.527Z,10.43
2022-11-21T22:17:52.130Z,10.20
2022-11-21T22:20:26.061Z,10.55
2022-11-21T22:23:00.710Z,9.77
2022-11-21T22:25:34.785Z,10.05
2022-11-21T22:28:08.776Z,9.43
2022-11-21T22:30:42.796Z,11.52
2022-11-21T22:33:18.729Z,10.77
2022-11-21T22:35:52.707Z,10.48
2022-11-21T22:38:26.571Z,10.57
2022-11-21T22:43:37.263Z,10.82
2022-11-21T22:46:13.142Z,10.75
2022-11-21T22:48:48.818Z,10.55
2022-11-21T22:51:24.819Z,10.13
2022-11-21T22:53:59.109Z,10.43
2022-11-21T22:56:33.126Z,10.10
2022-11-21T22:59:07.088Z,10.68
2022-11-21T23:01:40.960Z,9.38
2022-11-21T23:04:29.598Z,10.48
2022-11-21T23:07:03.409Z,10.73
2022-11-21T23:09:37.784Z,10.77
2022-11-21T23:12:14.379Z,10.20
2022-11-21T23:14:48.490Z,11.23
2022-11-21T23:17:24.244Z,11.02
2022-11-21T23:19:59.821Z,10.98
2022-11-21T23:22:33.795Z,12.10
2022-11-21T23:25:08.202Z,11.13
2022-11-21T23:27:42.186Z,11.85
2022-11-21T23:30:17.277Z,11.60
2022-11-21T23:32:51.225Z,11.27
2022-11-21T23:35:26.597Z,12.43
2022-11-21T23:38:00.544Z,11.88
2022-11-21T23:40:34.525Z,11.52
2022-11-21T23:43:08.582Z,11.57
2022-11-21T23:45:42.693Z,12.10
2022-11-21T23:48:16.650Z,12.07
2022-11-21T23:50:52.402Z,13.10
2022-11-21T23:53:26.371Z,12.70
2022-11-21T23:56:00.373Z,11.18
2022-11-21T23:58:34.432Z,12.68
